Duncan, OK (73533)

11:41 AM CST on December 05, 2016 (GMT -0600)
Duncan Golf and Tennis Club | | Change Station

Elev 1165 ft 34.53 °N, 97.96 °W | Updated 1 second ago

Overcast
Overcast
46.2 °F
Feels Like 43 °F
N
6.0
Wind Variable Wind from North
Gusts 11.0 mph

Today
High -- | Low -- °F
--% Chance of Precip.
Yesterday
High -- | Low -- °F
Precip. -- in
Pressure 29.89 in
Visibility -9999.0 miles
Clouds Overcast 1000 ft
Windchill 43 °F
Dew Point 42 °F
Humidity 86%
Rainfall 0.00 in
Snow Depth Not available.
7:24 AM 5:21 PM
Waxing Crescent, 33% visible
METAR KDUC 051715Z AUTO 16010KT OVC010 07/06 A2989 RMK AO2 PWINO TSNO
Pressure 29.89 in
Visibility -9999.0 miles
Clouds Overcast 1000 ft
Windchill 43 °F
Dew Point 42 °F
Humidity 86%
Rainfall 0.00 in
Snow Depth Not available.
7:24 AM 5:21 PM
Waxing Crescent, 33% visible
METAR KDUC 051715Z AUTO 16010KT OVC010 07/06 A2989 RMK AO2 PWINO TSNO

10-Day Weather Forecast

Almanac

Astronomy

Dec. 05, 2016 Rise Set
Actual Time
Civil Twilight
Nautical Twilight
Astronomical Twilight
Moon
Length of Visible Light
Length of Day
Tomorrow will be .
, % of the Moon is Illuminated

Today's Extremes

State Highs State Lows

Community

WunderPhotos

Upload Photos

1,955,794 photos uploaded!

WunderBlog® & News

Nearby

Air Quality

  Air Quality AQ Index Pollutant
Not available.

Snow Depth

Station Depth Elevation

Earthquake Activity

City Distance Mag. Time & Date
Minimum magnitude displayed is 2.5.

Coastal Water Temperatures

Place Temperature

Stations

Nearby Weather Stations

Station Location Temp. Windchill Dew Point Humidity Wind Precip. Elev Updated Type
                   

Watches & Warnings

There are currently no watches in effect.